Weather History for Show Low, AZ

Change the Weather History Date:

Tuesday, June 18, 2013

  Actual Average Record
Temperature  
Mean Temperature 68 °F -  
Max Temperature 86 °F 80 °F 95 °F (1974)
Min Temperature 50 °F 62 °F 39 °F (1973)
Cooling Degree Days 3    
Growing Degree Days 18 (Base 50)    
Moisture  
Dew Point 17 °F    
Average Humidity 16    
Maximum Humidity 35    
Minimum Humidity 6    
Precipitation  
Precipitation 0.00 in - - ()
Sea Level Pressure  
Sea Level Pressure 30.15 in    
Wind  
Wind Speed 10 mph (SSW)    
Max Wind Speed 23 mph    
Max Gust Speed 31 mph    
Visibility 10 miles    
Events      
Averages and records for this station are not official NWS values.
T = Trace of Precipitation, MM = Missing Value Source: NWS Daily Summary

Daily Weather History Graph

Daily Weather History Graph

Search for Another Location

Airport:

Trip Planner

Search our weather history database for the weather conditions in past years. The results will help you decide how hot, cold, wet, or windy it might be!

Date:

Astronomy

Jun. 18, 2013 Rise Set
Actual Time 5:07 AM MST 7:34 PM MST
Civil Twilight 4:38 AM MST 8:03 PM MST
Nautical Twilight 4:02 AM MST 8:40 PM MST
Astronomical Twilight 3:22 AM MST 9:19 PM MST
Moon 2:32 PM MST (6/18) 1:07 AM MST (6/18)
Length of Visible Light 15h 25m
Length of Day
14h 26m
Waxing Gibbous, 72% of the Moon is Illuminated
Jun 18
Waxing Gibbous
Jun 23
Full
Jun 29
Last Quarter
Jul 8
New
Jul 15
First Quarter

Hourly Weather History & Observations

Time (MST) Temp. Dew Point Humidity Pressure Visibility Wind Dir Wind Speed Gust Speed Precip Events Conditions
12:15 AM 59.0 °F 19.4 °F 22% 30.18 in 10.0 mi South 9.2 mph - N/A   Clear
12:35 AM 59.0 °F 19.4 °F 22% 30.18 in 10.0 mi South 8.1 mph - N/A   Clear
12:55 AM 59.0 °F 19.4 °F 22% 30.18 in 10.0 mi South 8.1 mph - N/A   Clear
1:15 AM 57.2 °F 19.4 °F 23% 30.18 in 10.0 mi South 8.1 mph - N/A   Clear
1:35 AM 57.2 °F 19.4 °F 23% 30.18 in 10.0 mi South 9.2 mph - N/A   Clear
1:55 AM 53.6 °F 19.4 °F 26% 30.17 in 10.0 mi SSE 8.1 mph - N/A   Clear
2:15 AM 53.6 °F 19.4 °F 26% 30.17 in 10.0 mi SSE 6.9 mph - N/A   Clear
2:35 AM 51.8 °F 21.2 °F 30% 30.17 in 10.0 mi South 9.2 mph - N/A   Clear
2:55 AM 53.6 °F 23.0 °F 30% 30.17 in 10.0 mi South 9.2 mph - N/A   Clear
3:15 AM 51.8 °F 23.0 °F 33% 30.17 in 10.0 mi SSE 6.9 mph - N/A   Clear
3:35 AM 50.0 °F 19.4 °F 30% 30.17 in 10.0 mi South 3.5 mph - N/A   Clear
3:55 AM 53.6 °F 19.4 °F 26% 30.17 in 10.0 mi South 5.8 mph - N/A   Clear
4:15 AM 51.8 °F 21.2 °F 30% 30.17 in 10.0 mi South 4.6 mph - N/A   Clear
4:35 AM 50.0 °F 23.0 °F 35% 30.17 in 10.0 mi South 4.6 mph - N/A   Clear
4:55 AM 50.0 °F 23.0 °F 35% 30.18 in 10.0 mi South 4.6 mph - N/A   Clear
5:15 AM 51.8 °F 23.0 °F 33% 30.18 in 10.0 mi South 5.8 mph - N/A   Clear
5:35 AM 50.0 °F 23.0 °F 35% 30.19 in 10.0 mi South 6.9 mph - N/A   Clear
5:55 AM 55.4 °F 23.0 °F 29% 30.20 in 10.0 mi South 6.9 mph - N/A   Clear
6:15 AM 59.0 °F 23.0 °F 25% 30.20 in 10.0 mi South 6.9 mph - N/A   Clear
6:35 AM 64.4 °F 23.0 °F 21% 30.20 in 10.0 mi South 8.1 mph - N/A   Clear
6:55 AM 66.2 °F 24.8 °F 21% 30.20 in 10.0 mi South 8.1 mph - N/A   Clear
7:15 AM 69.8 °F 23.0 °F 17% 30.21 in 10.0 mi South 8.1 mph - N/A   Clear
7:35 AM 71.6 °F 23.0 °F 16% 30.21 in 10.0 mi South 8.1 mph - N/A   Clear
7:55 AM 73.4 °F 23.0 °F 15% 30.21 in 10.0 mi SSW 4.6 mph - N/A   Clear
8:15 AM 73.4 °F 19.4 °F 13% 30.21 in 10.0 mi South 3.5 mph - N/A   Clear
8:35 AM 75.2 °F 17.6 °F 11% 30.22 in 10.0 mi SSW 4.6 mph - N/A   Clear
8:55 AM 75.2 °F 17.6 °F 11% 30.21 in 10.0 mi SW 11.5 mph - N/A   Clear
9:15 AM 75.2 °F 15.8 °F 11% 30.21 in 10.0 mi SW 9.2 mph 20.7 mph N/A   Clear
9:35 AM 77.0 °F 17.6 °F 11% 30.21 in 10.0 mi SW 17.3 mph 20.7 mph N/A   Clear
9:55 AM 77.0 °F 17.6 °F 11% 30.20 in 10.0 mi SW 12.7 mph 19.6 mph N/A   Clear
10:15 AM 77.0 °F 15.8 °F 10% 30.20 in 10.0 mi WSW 16.1 mph 20.7 mph N/A   Clear
10:35 AM 78.8 °F 17.6 °F 10% 30.20 in 10.0 mi WSW 11.5 mph 21.9 mph N/A   Clear
10:55 AM 80.6 °F 17.6 °F 10% 30.20 in 10.0 mi SW 17.3 mph 23.0 mph N/A   Clear
11:15 AM 80.6 °F 17.6 °F 10% 30.19 in 10.0 mi WSW 17.3 mph 24.2 mph N/A   Clear
11:35 AM 82.4 °F 17.6 °F 9% 30.19 in 10.0 mi WSW 16.1 mph 24.2 mph N/A   Clear
11:55 AM 82.4 °F 15.8 °F 8% 30.18 in 10.0 mi SW 12.7 mph 23.0 mph N/A   Clear
12:15 PM 82.4 °F 15.8 °F 8% 30.18 in 10.0 mi SSW 18.4 mph 21.9 mph N/A   Clear
12:35 PM 84.2 °F 15.8 °F 8% 30.17 in 10.0 mi SW 11.5 mph 23.0 mph N/A   Clear
12:55 PM 84.2 °F 15.8 °F 8% 30.16 in 10.0 mi SSW 18.4 mph 23.0 mph N/A   Clear
1:35 PM 84.2 °F 10.4 °F 6% 30.14 in 10.0 mi SW 18.4 mph 27.6 mph N/A   Clear
2:15 PM 84.2 °F 8.6 °F 6% 30.14 in 10.0 mi SSW 19.6 mph 27.6 mph N/A   Clear
2:35 PM 84.2 °F 10.4 °F 6% 30.13 in 10.0 mi SSW 23.0 mph 31.1 mph N/A   Clear
2:55 PM 86.0 °F 15.8 °F 7% 30.13 in 10.0 mi SSW 15.0 mph 21.9 mph N/A   Clear
3:15 PM 86.0 °F 14.0 °F 7% 30.12 in 10.0 mi SW 13.8 mph 26.5 mph N/A   Clear
3:55 PM 86.0 °F 15.8 °F 7% 30.11 in 10.0 mi SW 19.6 mph 26.5 mph N/A   Clear
4:15 PM 84.2 °F 15.8 °F 8% 30.11 in 10.0 mi SSW 20.7 mph 24.2 mph N/A   Clear
4:35 PM 84.2 °F 15.8 °F 8% 30.10 in 10.0 mi SSW 20.7 mph 28.8 mph N/A   Clear
4:55 PM 84.2 °F 17.6 °F 8% 30.09 in 10.0 mi SSW 18.4 mph 25.3 mph N/A   Clear
5:15 PM 84.2 °F 15.8 °F 8% 30.09 in 10.0 mi SW 21.9 mph 26.5 mph N/A   Clear
5:35 PM 82.4 °F 15.8 °F 8% 30.09 in 10.0 mi SW 19.6 mph - N/A   Clear
5:55 PM 82.4 °F 15.8 °F 8% 30.09 in 10.0 mi SW 15.0 mph - N/A   Clear
6:15 PM 80.6 °F 15.8 °F 9% 30.09 in 10.0 mi SW 19.6 mph - N/A   Clear
6:35 PM 80.6 °F 15.8 °F 9% 30.10 in 10.0 mi SW 16.1 mph 21.9 mph N/A   Clear
6:55 PM 77.0 °F 15.8 °F 10% 30.10 in 10.0 mi SW 16.1 mph - N/A   Clear
7:15 PM 77.0 °F 14.0 °F 9% 30.10 in 10.0 mi WSW 13.8 mph 19.6 mph N/A   Clear
7:35 PM 73.4 °F 14.0 °F 10% 30.10 in 10.0 mi SW 10.4 mph - N/A   Clear
7:55 PM 71.6 °F 14.0 °F 11% 30.10 in 10.0 mi SW 9.2 mph - N/A   Clear
8:15 PM 69.8 °F 10.4 °F 10% 30.10 in 10.0 mi SW 5.8 mph - N/A   Clear
8:35 PM 68.0 °F 10.4 °F 11% 30.10 in 10.0 mi Calm Calm - N/A   Clear
8:55 PM 66.2 °F 10.4 °F 11% 30.11 in 10.0 mi Calm Calm - N/A   Clear
9:15 PM 64.4 °F 10.4 °F 12% 30.11 in 10.0 mi Calm Calm - N/A   Clear
9:35 PM 64.4 °F 10.4 °F 12% 30.11 in 10.0 mi Calm Calm - N/A   Clear
9:55 PM 60.8 °F 10.4 °F 14% 30.11 in 10.0 mi Calm Calm - N/A   Clear
10:15 PM 59.0 °F 10.4 °F 15% 30.11 in 10.0 mi SSW 5.8 mph - N/A   Clear
10:35 PM 64.4 °F 12.2 °F 13% 30.10 in 10.0 mi SW 8.1 mph - N/A   Clear
10:55 PM 66.2 °F 12.2 °F 12% 30.10 in 10.0 mi SSW 12.7 mph - N/A   Clear
11:15 PM 66.2 °F 14.0 °F 13% 30.09 in 10.0 mi South 19.6 mph - N/A   Clear
11:35 PM 64.4 °F 14.0 °F 14% 30.09 in 10.0 mi South 16.1 mph - N/A   Clear
11:55 PM 62.6 °F 14.0 °F 15% 30.10 in 10.0 mi South 13.8 mph - N/A   Clear